Tuxford, Canada
Current Conditions -  °F | °C
As of 8:00 AM on Monday 22 Dec 2014 (Local Time) from CYQR Reporting Station
Haze Haze  
Wind Chill: 12°   Ceiling: 200
Heat Index: 23°   Visibility: 0.62mi
Dew Point: 23°   Wind: 12mph
Humidity: 100%   Direction: 330°NNW
Pressure: 29.6"   Gusts: NA
Location:  50.58°N, 105.58°W
Report Text: CYQR 221400Z 33010KT 5/8SM R13/3500FT/N BR VV002 M05/M05 A2960 RMK FG8 SLP057
Loading
Personal Weather Stations






























Interactive Weather Map New forecast layout! Learn more

10-Day Weather Forecast

Advertisements
Track Severe Weather on mobile